CDU weather

Camden Airport
New South Wales, Australia

Public forecast

Using degrees Celsius for public forecast. Weather courtesy of forecast.io.

METAR (pilot weather report)

Closest report is Sydney Kingsford Smith International Airport, 25.0 nm (46.4 km) ENE. Retrieved 2017/05/24 07:30 UTC (15 minutes ago):

YSSY 240730Z 26017KT CAVOK 18/06 Q1015 NOSIG

TAF (pilot weather forecast)

Closest forecast is Sydney Kingsford Smith International Airport, 25.0 nm (46.4 km) ENE. Retrieved 2017/05/24 06:00 UTC (2 hours ago):

TAF YSSY 240507Z 2406/2512 25018KT CAVOK FM240900 25008KT CAVOK FM250000 21008KT CAVOK FM250700 13006KT CAVOK